sensor_id;sensor_type;location;lat;lon;timestamp;P1;durP1;ratioP1;P2;durP2;ratioP2
30303;SDS011;17112;48.636;10.152;2024-01-30T00:01:52;26.65;;;15.00;;
30303;SDS011;17112;48.636;10.152;2024-01-30T00:04:17;28.40;;;15.65;;
30303;SDS011;17112;48.636;10.152;2024-01-30T00:06:43;22.67;;;13.85;;
30303;SDS011;17112;48.636;10.152;2024-01-30T00:09:09;26.08;;;15.68;;
30303;SDS011;17112;48.636;10.152;2024-01-30T00:11:36;27.17;;;14.50;;
30303;SDS011;17112;48.636;10.152;2024-01-30T00:14:02;25.13;;;14.90;;
30303;SDS011;17112;48.636;10.152;2024-01-30T00:16:28;25.60;;;15.20;;
30303;SDS011;17112;48.636;10.152;2024-01-30T00:18:54;23.60;;;14.93;;
30303;SDS011;17112;48.636;10.152;2024-01-30T00:21:20;24.27;;;14.95;;
30303;SDS011;17112;48.636;10.152;2024-01-30T00:23:47;34.47;;;16.35;;
30303;SDS011;17112;48.636;10.152;2024-01-30T00:26:13;24.17;;;15.45;;
30303;SDS011;17112;48.636;10.152;2024-01-30T00:28:40;26.00;;;15.63;;
30303;SDS011;17112;48.636;10.152;2024-01-30T00:31:06;31.10;;;16.13;;
30303;SDS011;17112;48.636;10.152;2024-01-30T00:33:31;27.60;;;16.48;;
30303;SDS011;17112;48.636;10.152;2024-01-30T00:35:57;27.17;;;14.80;;
30303;SDS011;17112;48.636;10.152;2024-01-30T00:38:23;28.40;;;15.02;;
30303;SDS011;17112;48.636;10.152;2024-01-30T00:40:49;25.70;;;14.40;;
30303;SDS011;17112;48.636;10.152;2024-01-30T00:43:15;30.75;;;15.50;;
30303;SDS011;17112;48.636;10.152;2024-01-30T00:45:41;36.45;;;16.17;;
30303;SDS011;17112;48.636;10.152;2024-01-30T00:48:10;24.52;;;14.93;;
30303;SDS011;17112;48.636;10.152;2024-01-30T00:50:35;28.35;;;15.55;;
30303;SDS011;17112;48.636;10.152;2024-01-30T00:53:01;28.70;;;16.13;;
30303;SDS011;17112;48.636;10.152;2024-01-30T00:55:27;25.67;;;14.98;;
30303;SDS011;17112;48.636;10.152;2024-01-30T00:57:52;25.00;;;14.88;;
30303;SDS011;17112;48.636;10.152;2024-01-30T01:00:18;23.38;;;14.65;;
30303;SDS011;17112;48.636;10.152;2024-01-30T01:02:45;25.50;;;15.38;;
30303;SDS011;17112;48.636;10.152;2024-01-30T01:05:11;26.25;;;15.30;;
30303;SDS011;17112;48.636;10.152;2024-01-30T01:07:37;28.40;;;14.98;;
30303;SDS011;17112;48.636;10.152;2024-01-30T01:10:03;24.77;;;13.85;;
30303;SDS011;17112;48.636;10.152;2024-01-30T01:12:29;25.00;;;14.93;;
30303;SDS011;17112;48.636;10.152;2024-01-30T01:14:54;27.75;;;15.55;;
30303;SDS011;17112;48.636;10.152;2024-01-30T01:17:20;25.92;;;15.65;;
30303;SDS011;17112;48.636;10.152;2024-01-30T01:19:46;23.40;;;13.38;;
30303;SDS011;17112;48.636;10.152;2024-01-30T01:22:12;25.58;;;15.60;;
30303;SDS011;17112;48.636;10.152;2024-01-30T01:24:37;26.13;;;16.05;;
30303;SDS011;17112;48.636;10.152;2024-01-30T01:27:04;22.02;;;13.70;;
30303;SDS011;17112;48.636;10.152;2024-01-30T01:29:31;26.63;;;15.38;;
30303;SDS011;17112;48.636;10.152;2024-01-30T01:31:57;26.17;;;15.57;;
30303;SDS011;17112;48.636;10.152;2024-01-30T01:34:23;24.23;;;14.13;;
30303;SDS011;17112;48.636;10.152;2024-01-30T01:36:50;23.55;;;14.02;;
30303;SDS011;17112;48.636;10.152;2024-01-30T01:39:16;24.42;;;14.00;;
30303;SDS011;17112;48.636;10.152;2024-01-30T01:41:42;26.08;;;14.35;;
30303;SDS011;17112;48.636;10.152;2024-01-30T01:44:08;23.52;;;14.27;;
30303;SDS011;17112;48.636;10.152;2024-01-30T01:46:34;23.67;;;15.10;;
30303;SDS011;17112;48.636;10.152;2024-01-30T01:49:00;24.98;;;14.80;;
30303;SDS011;17112;48.636;10.152;2024-01-30T01:51:29;26.60;;;15.25;;
30303;SDS011;17112;48.636;10.152;2024-01-30T01:53:57;24.98;;;14.25;;
30303;SDS011;17112;48.636;10.152;2024-01-30T01:56:26;22.60;;;13.77;;
30303;SDS011;17112;48.636;10.152;2024-01-30T01:58:54;24.02;;;14.32;;
30303;SDS011;17112;48.636;10.152;2024-01-30T02:01:24;25.58;;;14.35;;
30303;SDS011;17112;48.636;10.152;2024-01-30T02:03:52;25.25;;;15.20;;
30303;SDS011;17112;48.636;10.152;2024-01-30T02:06:18;24.85;;;14.75;;
30303;SDS011;17112;48.636;10.152;2024-01-30T02:08:44;23.90;;;14.48;;
30303;SDS011;17112;48.636;10.152;2024-01-30T02:11:10;23.70;;;14.07;;
30303;SDS011;17112;48.636;10.152;2024-01-30T02:13:36;27.73;;;14.20;;
30303;SDS011;17112;48.636;10.152;2024-01-30T02:16:02;26.23;;;14.27;;
30303;SDS011;17112;48.636;10.152;2024-01-30T02:18:28;27.75;;;14.38;;
30303;SDS011;17112;48.636;10.152;2024-01-30T02:20:54;25.40;;;15.05;;
30303;SDS011;17112;48.636;10.152;2024-01-30T02:23:25;24.23;;;14.80;;
30303;SDS011;17112;48.636;10.152;2024-01-30T02:25:51;24.17;;;14.10;;
30303;SDS011;17112;48.636;10.152;2024-01-30T02:28:18;29.55;;;15.15;;
30303;SDS011;17112;48.636;10.152;2024-01-30T02:30:44;24.52;;;14.23;;
30303;SDS011;17112;48.636;10.152;2024-01-30T02:33:11;25.27;;;15.23;;
30303;SDS011;17112;48.636;10.152;2024-01-30T02:35:37;30.73;;;15.32;;
30303;SDS011;17112;48.636;10.152;2024-01-30T02:38:03;25.38;;;15.30;;
30303;SDS011;17112;48.636;10.152;2024-01-30T02:40:29;23.95;;;14.23;;
30303;SDS011;17112;48.636;10.152;2024-01-30T02:42:55;27.98;;;15.32;;
30303;SDS011;17112;48.636;10.152;2024-01-30T02:45:21;28.27;;;16.00;;
30303;SDS011;17112;48.636;10.152;2024-01-30T02:47:47;25.75;;;14.95;;
30303;SDS011;17112;48.636;10.152;2024-01-30T02:50:13;31.80;;;14.48;;
30303;SDS011;17112;48.636;10.152;2024-01-30T02:52:40;24.13;;;14.32;;
30303;SDS011;17112;48.636;10.152;2024-01-30T02:55:06;26.45;;;14.77;;
30303;SDS011;17112;48.636;10.152;2024-01-30T02:57:32;30.50;;;14.95;;
30303;SDS011;17112;48.636;10.152;2024-01-30T02:59:57;23.15;;;13.65;;
30303;SDS011;17112;48.636;10.152;2024-01-30T03:02:23;31.85;;;15.07;;
30303;SDS011;17112;48.636;10.152;2024-01-30T03:04:49;24.38;;;14.18;;
30303;SDS011;17112;48.636;10.152;2024-01-30T03:07:15;25.45;;;14.80;;
30303;SDS011;17112;48.636;10.152;2024-01-30T03:09:43;27.65;;;14.27;;
30303;SDS011;17112;48.636;10.152;2024-01-30T03:12:09;26.42;;;14.55;;
30303;SDS011;17112;48.636;10.152;2024-01-30T03:14:35;28.45;;;15.90;;
30303;SDS011;17112;48.636;10.152;2024-01-30T03:17:01;25.10;;;14.25;;
30303;SDS011;17112;48.636;10.152;2024-01-30T03:19:26;25.02;;;14.15;;
30303;SDS011;17112;48.636;10.152;2024-01-30T03:21:52;24.75;;;15.15;;
30303;SDS011;17112;48.636;10.152;2024-01-30T03:24:18;26.35;;;14.43;;
30303;SDS011;17112;48.636;10.152;2024-01-30T03:26:44;25.90;;;14.70;;
30303;SDS011;17112;48.636;10.152;2024-01-30T03:29:09;21.50;;;13.27;;
30303;SDS011;17112;48.636;10.152;2024-01-30T03:31:35;26.13;;;15.27;;
30303;SDS011;17112;48.636;10.152;2024-01-30T03:34:01;27.50;;;14.68;;
30303;SDS011;17112;48.636;10.152;2024-01-30T03:36:27;27.35;;;13.60;;
30303;SDS011;17112;48.636;10.152;2024-01-30T03:38:53;22.63;;;14.15;;
30303;SDS011;17112;48.636;10.152;2024-01-30T03:41:18;22.48;;;14.65;;
30303;SDS011;17112;48.636;10.152;2024-01-30T03:43:44;30.52;;;15.77;;
30303;SDS011;17112;48.636;10.152;2024-01-30T03:46:11;27.73;;;15.05;;
30303;SDS011;17112;48.636;10.152;2024-01-30T03:48:38;24.15;;;14.82;;
30303;SDS011;17112;48.636;10.152;2024-01-30T03:51:04;22.08;;;14.18;;
30303;SDS011;17112;48.636;10.152;2024-01-30T03:53:30;25.85;;;14.40;;
30303;SDS011;17112;48.636;10.152;2024-01-30T03:55:56;25.83;;;15.07;;
30303;SDS011;17112;48.636;10.152;2024-01-30T03:58:22;25.20;;;15.30;;
30303;SDS011;17112;48.636;10.152;2024-01-30T04:00:47;25.33;;;14.40;;
30303;SDS011;17112;48.636;10.152;2024-01-30T04:03:16;23.10;;;14.02;;
30303;SDS011;17112;48.636;10.152;2024-01-30T04:05:42;24.45;;;14.38;;
30303;SDS011;17112;48.636;10.152;2024-01-30T04:08:09;24.48;;;14.25;;
30303;SDS011;17112;48.636;10.152;2024-01-30T04:10:35;25.45;;;15.23;;
30303;SDS011;17112;48.636;10.152;2024-01-30T04:13:00;25.15;;;15.27;;
30303;SDS011;17112;48.636;10.152;2024-01-30T04:15:26;23.23;;;14.70;;
30303;SDS011;17112;48.636;10.152;2024-01-30T04:17:53;28.27;;;15.55;;
30303;SDS011;17112;48.636;10.152;2024-01-30T04:20:18;25.05;;;15.40;;
30303;SDS011;17112;48.636;10.152;2024-01-30T04:22:44;27.45;;;14.88;;
30303;SDS011;17112;48.636;10.152;2024-01-30T04:25:11;24.13;;;15.32;;
30303;SDS011;17112;48.636;10.152;2024-01-30T04:27:37;31.17;;;15.43;;
30303;SDS011;17112;48.636;10.152;2024-01-30T04:30:03;30.75;;;16.13;;
30303;SDS011;17112;48.636;10.152;2024-01-30T04:32:30;33.08;;;15.35;;
30303;SDS011;17112;48.636;10.152;2024-01-30T04:34:55;38.38;;;15.77;;
30303;SDS011;17112;48.636;10.152;2024-01-30T04:37:21;33.13;;;16.02;;
30303;SDS011;17112;48.636;10.152;2024-01-30T04:39:46;35.15;;;15.00;;
30303;SDS011;17112;48.636;10.152;2024-01-30T04:42:12;32.08;;;16.85;;
30303;SDS011;17112;48.636;10.152;2024-01-30T04:44:38;29.40;;;15.68;;
30303;SDS011;17112;48.636;10.152;2024-01-30T04:47:04;45.28;;;16.77;;
30303;SDS011;17112;48.636;10.152;2024-01-30T04:49:33;41.75;;;16.38;;
30303;SDS011;17112;48.636;10.152;2024-01-30T04:51:58;40.53;;;16.92;;
30303;SDS011;17112;48.636;10.152;2024-01-30T04:54:24;44.97;;;17.52;;
30303;SDS011;17112;48.636;10.152;2024-01-30T04:56:50;44.25;;;16.63;;
30303;SDS011;17112;48.636;10.152;2024-01-30T04:59:16;44.28;;;18.48;;
30303;SDS011;17112;48.636;10.152;2024-01-30T05:01:42;35.30;;;17.30;;
30303;SDS011;17112;48.636;10.152;2024-01-30T05:04:07;39.25;;;18.27;;
30303;SDS011;17112;48.636;10.152;2024-01-30T05:06:34;47.60;;;19.13;;
30303;SDS011;17112;48.636;10.152;2024-01-30T05:08:59;35.78;;;18.33;;
30303;SDS011;17112;48.636;10.152;2024-01-30T05:11:25;45.78;;;19.13;;
30303;SDS011;17112;48.636;10.152;2024-01-30T05:13:51;41.55;;;19.27;;
30303;SDS011;17112;48.636;10.152;2024-01-30T05:16:16;55.92;;;21.52;;
30303;SDS011;17112;48.636;10.152;2024-01-30T05:18:42;53.05;;;22.08;;
30303;SDS011;17112;48.636;10.152;2024-01-30T05:21:08;51.50;;;23.10;;
30303;SDS011;17112;48.636;10.152;2024-01-30T05:23:35;48.60;;;22.83;;
30303;SDS011;17112;48.636;10.152;2024-01-30T05:26:01;55.65;;;22.30;;
30303;SDS011;17112;48.636;10.152;2024-01-30T05:28:27;61.53;;;25.80;;
30303;SDS011;17112;48.636;10.152;2024-01-30T05:30:57;58.30;;;24.63;;
30303;SDS011;17112;48.636;10.152;2024-01-30T05:33:22;61.85;;;25.40;;
30303;SDS011;17112;48.636;10.152;2024-01-30T05:35:48;63.88;;;26.55;;
30303;SDS011;17112;48.636;10.152;2024-01-30T05:38:14;65.00;;;25.92;;
30303;SDS011;17112;48.636;10.152;2024-01-30T05:40:41;56.88;;;23.38;;
30303;SDS011;17112;48.636;10.152;2024-01-30T05:43:07;261.25;;;80.55;;
30303;SDS011;17112;48.636;10.152;2024-01-30T05:45:33;102.45;;;39.42;;
30303;SDS011;17112;48.636;10.152;2024-01-30T05:48:01;73.20;;;30.67;;
30303;SDS011;17112;48.636;10.152;2024-01-30T05:50:26;93.05;;;26.50;;
30303;SDS011;17112;48.636;10.152;2024-01-30T05:52:52;93.43;;;23.27;;
30303;SDS011;17112;48.636;10.152;2024-01-30T05:55:18;62.85;;;19.48;;
30303;SDS011;17112;48.636;10.152;2024-01-30T05:57:44;62.42;;;22.30;;
30303;SDS011;17112;48.636;10.152;2024-01-30T06:00:09;51.00;;;21.30;;
30303;SDS011;17112;48.636;10.152;2024-01-30T06:02:35;64.85;;;29.27;;
30303;SDS011;17112;48.636;10.152;2024-01-30T06:05:01;57.97;;;25.98;;
30303;SDS011;17112;48.636;10.152;2024-01-30T06:07:27;64.78;;;28.83;;
30303;SDS011;17112;48.636;10.152;2024-01-30T06:09:53;58.00;;;27.80;;
30303;SDS011;17112;48.636;10.152;2024-01-30T06:12:18;75.40;;;27.73;;
30303;SDS011;17112;48.636;10.152;2024-01-30T06:14:44;59.72;;;24.77;;
30303;SDS011;17112;48.636;10.152;2024-01-30T06:17:09;45.65;;;21.20;;
30303;SDS011;17112;48.636;10.152;2024-01-30T06:19:37;48.03;;;23.58;;
30303;SDS011;17112;48.636;10.152;2024-01-30T06:22:04;42.55;;;21.33;;
30303;SDS011;17112;48.636;10.152;2024-01-30T06:24:30;44.53;;;22.08;;
30303;SDS011;17112;48.636;10.152;2024-01-30T06:26:55;40.15;;;20.10;;
30303;SDS011;17112;48.636;10.152;2024-01-30T06:29:21;39.20;;;19.98;;
30303;SDS011;17112;48.636;10.152;2024-01-30T06:31:47;35.75;;;20.00;;
30303;SDS011;17112;48.636;10.152;2024-01-30T06:34:13;38.50;;;20.35;;
30303;SDS011;17112;48.636;10.152;2024-01-30T06:36:38;44.38;;;20.63;;
30303;SDS011;17112;48.636;10.152;2024-01-30T06:39:04;34.75;;;19.35;;
30303;SDS011;17112;48.636;10.152;2024-01-30T06:41:30;36.20;;;18.30;;
30303;SDS011;17112;48.636;10.152;2024-01-30T06:43:56;37.72;;;20.25;;
30303;SDS011;17112;48.636;10.152;2024-01-30T06:46:22;39.38;;;21.02;;
30303;SDS011;17112;48.636;10.152;2024-01-30T06:48:48;39.85;;;19.52;;
30303;SDS011;17112;48.636;10.152;2024-01-30T06:51:14;39.17;;;19.88;;
30303;SDS011;17112;48.636;10.152;2024-01-30T06:53:39;38.70;;;19.00;;
30303;SDS011;17112;48.636;10.152;2024-01-30T06:56:05;39.72;;;20.52;;
30303;SDS011;17112;48.636;10.152;2024-01-30T06:58:31;35.35;;;19.70;;
30303;SDS011;17112;48.636;10.152;2024-01-30T07:00:57;38.67;;;19.85;;
30303;SDS011;17112;48.636;10.152;2024-01-30T07:03:23;39.33;;;20.27;;
30303;SDS011;17112;48.636;10.152;2024-01-30T07:05:49;37.88;;;20.15;;
30303;SDS011;17112;48.636;10.152;2024-01-30T07:08:15;40.78;;;19.95;;
30303;SDS011;17112;48.636;10.152;2024-01-30T07:10:44;36.17;;;19.77;;
30303;SDS011;17112;48.636;10.152;2024-01-30T07:13:12;37.35;;;20.10;;
30303;SDS011;17112;48.636;10.152;2024-01-30T07:15:38;35.13;;;19.83;;
30303;SDS011;17112;48.636;10.152;2024-01-30T07:18:04;35.17;;;20.08;;
30303;SDS011;17112;48.636;10.152;2024-01-30T07:20:30;32.45;;;18.85;;
30303;SDS011;17112;48.636;10.152;2024-01-30T07:22:59;39.53;;;18.80;;
30303;SDS011;17112;48.636;10.152;2024-01-30T07:25:25;35.05;;;20.08;;
30303;SDS011;17112;48.636;10.152;2024-01-30T07:27:52;35.75;;;19.73;;
30303;SDS011;17112;48.636;10.152;2024-01-30T07:30:18;39.60;;;21.48;;
30303;SDS011;17112;48.636;10.152;2024-01-30T07:32:48;51.40;;;26.92;;
30303;SDS011;17112;48.636;10.152;2024-01-30T07:35:14;45.08;;;23.48;;
30303;SDS011;17112;48.636;10.152;2024-01-30T07:37:39;41.50;;;21.73;;
30303;SDS011;17112;48.636;10.152;2024-01-30T07:40:05;39.80;;;21.80;;
30303;SDS011;17112;48.636;10.152;2024-01-30T07:42:32;39.05;;;22.35;;
30303;SDS011;17112;48.636;10.152;2024-01-30T07:44:58;40.42;;;22.52;;
30303;SDS011;17112;48.636;10.152;2024-01-30T07:47:25;39.80;;;21.55;;
30303;SDS011;17112;48.636;10.152;2024-01-30T07:49:51;33.22;;;20.75;;
30303;SDS011;17112;48.636;10.152;2024-01-30T07:52:17;32.80;;;19.73;;
30303;SDS011;17112;48.636;10.152;2024-01-30T07:54:43;35.03;;;18.58;;
30303;SDS011;17112;48.636;10.152;2024-01-30T07:57:09;36.90;;;18.17;;
30303;SDS011;17112;48.636;10.152;2024-01-30T07:59:35;32.40;;;19.02;;
30303;SDS011;17112;48.636;10.152;2024-01-30T08:02:02;28.92;;;17.00;;
30303;SDS011;17112;48.636;10.152;2024-01-30T08:04:28;37.63;;;19.42;;
30303;SDS011;17112;48.636;10.152;2024-01-30T08:06:53;37.28;;;19.55;;
30303;SDS011;17112;48.636;10.152;2024-01-30T08:09:20;31.40;;;18.63;;
30303;SDS011;17112;48.636;10.152;2024-01-30T08:11:46;36.95;;;20.65;;
30303;SDS011;17112;48.636;10.152;2024-01-30T08:14:11;34.97;;;21.98;;
30303;SDS011;17112;48.636;10.152;2024-01-30T08:16:38;34.50;;;20.77;;
30303;SDS011;17112;48.636;10.152;2024-01-30T08:19:04;35.95;;;21.23;;
30303;SDS011;17112;48.636;10.152;2024-01-30T08:21:30;34.08;;;19.80;;
30303;SDS011;17112;48.636;10.152;2024-01-30T08:24:01;37.75;;;20.83;;
30303;SDS011;17112;48.636;10.152;2024-01-30T08:26:31;37.45;;;20.35;;
30303;SDS011;17112;48.636;10.152;2024-01-30T08:28:57;39.30;;;22.58;;
30303;SDS011;17112;48.636;10.152;2024-01-30T08:31:23;39.40;;;23.33;;
30303;SDS011;17112;48.636;10.152;2024-01-30T08:33:48;40.63;;;23.38;;
30303;SDS011;17112;48.636;10.152;2024-01-30T08:36:15;40.03;;;23.83;;
30303;SDS011;17112;48.636;10.152;2024-01-30T08:38:41;41.25;;;22.65;;
30303;SDS011;17112;48.636;10.152;2024-01-30T08:41:07;38.22;;;22.50;;
30303;SDS011;17112;48.636;10.152;2024-01-30T08:43:33;33.40;;;20.55;;
30303;SDS011;17112;48.636;10.152;2024-01-30T08:46:02;33.35;;;20.30;;
30303;SDS011;17112;48.636;10.152;2024-01-30T08:48:28;36.97;;;20.75;;
30303;SDS011;17112;48.636;10.152;2024-01-30T08:50:54;39.78;;;21.75;;
30303;SDS011;17112;48.636;10.152;2024-01-30T08:53:19;38.47;;;22.42;;
30303;SDS011;17112;48.636;10.152;2024-01-30T08:55:45;39.50;;;22.95;;
30303;SDS011;17112;48.636;10.152;2024-01-30T08:58:11;41.95;;;24.38;;
30303;SDS011;17112;48.636;10.152;2024-01-30T09:00:36;39.80;;;21.98;;
30303;SDS011;17112;48.636;10.152;2024-01-30T09:03:05;32.97;;;21.52;;
30303;SDS011;17112;48.636;10.152;2024-01-30T09:05:31;42.00;;;21.13;;
30303;SDS011;17112;48.636;10.152;2024-01-30T09:07:56;39.22;;;20.65;;
30303;SDS011;17112;48.636;10.152;2024-01-30T09:10:22;29.77;;;19.55;;
30303;SDS011;17112;48.636;10.152;2024-01-30T09:12:48;30.55;;;18.50;;
30303;SDS011;17112;48.636;10.152;2024-01-30T09:15:14;27.55;;;17.70;;
30303;SDS011;17112;48.636;10.152;2024-01-30T09:17:40;25.63;;;16.65;;
30303;SDS011;17112;48.636;10.152;2024-01-30T09:20:05;28.33;;;16.02;;
30303;SDS011;17112;48.636;10.152;2024-01-30T09:22:31;28.92;;;16.02;;
30303;SDS011;17112;48.636;10.152;2024-01-30T09:24:57;26.13;;;15.52;;
30303;SDS011;17112;48.636;10.152;2024-01-30T09:27:23;25.30;;;14.40;;
30303;SDS011;17112;48.636;10.152;2024-01-30T09:29:49;27.60;;;15.05;;
30303;SDS011;17112;48.636;10.152;2024-01-30T09:32:14;22.63;;;14.35;;
30303;SDS011;17112;48.636;10.152;2024-01-30T09:34:40;23.95;;;13.85;;
30303;SDS011;17112;48.636;10.152;2024-01-30T09:37:06;26.10;;;15.82;;
30303;SDS011;17112;48.636;10.152;2024-01-30T09:39:32;29.10;;;16.38;;
30303;SDS011;17112;48.636;10.152;2024-01-30T09:44:33;32.63;;;19.08;;
30303;SDS011;17112;48.636;10.152;2024-01-30T09:47:01;28.70;;;18.42;;
30303;SDS011;17112;48.636;10.152;2024-01-30T09:49:33;32.25;;;18.92;;
30303;SDS011;17112;48.636;10.152;2024-01-30T09:52:01;27.33;;;17.50;;
30303;SDS011;17112;48.636;10.152;2024-01-30T09:54:30;27.38;;;17.42;;
30303;SDS011;17112;48.636;10.152;2024-01-30T09:56:59;35.25;;;21.70;;
30303;SDS011;17112;48.636;10.152;2024-01-30T09:59:25;32.38;;;18.30;;
30303;SDS011;17112;48.636;10.152;2024-01-30T10:01:50;27.30;;;16.70;;
30303;SDS011;17112;48.636;10.152;2024-01-30T10:04:16;29.85;;;16.33;;
30303;SDS011;17112;48.636;10.152;2024-01-30T10:06:42;29.10;;;18.38;;
30303;SDS011;17112;48.636;10.152;2024-01-30T10:09:08;29.02;;;17.80;;
30303;SDS011;17112;48.636;10.152;2024-01-30T10:11:38;29.55;;;17.80;;
30303;SDS011;17112;48.636;10.152;2024-01-30T10:14:04;28.75;;;17.98;;
30303;SDS011;17112;48.636;10.152;2024-01-30T10:16:29;28.58;;;18.88;;
30303;SDS011;17112;48.636;10.152;2024-01-30T10:18:55;28.00;;;18.00;;
30303;SDS011;17112;48.636;10.152;2024-01-30T10:21:21;30.88;;;18.33;;
30303;SDS011;17112;48.636;10.152;2024-01-30T10:23:47;28.05;;;17.52;;
30303;SDS011;17112;48.636;10.152;2024-01-30T10:26:13;32.97;;;19.77;;
30303;SDS011;17112;48.636;10.152;2024-01-30T10:28:41;35.40;;;19.05;;
30303;SDS011;17112;48.636;10.152;2024-01-30T10:31:07;31.17;;;18.63;;
30303;SDS011;17112;48.636;10.152;2024-01-30T10:33:33;35.17;;;19.08;;
30303;SDS011;17112;48.636;10.152;2024-01-30T10:36:02;31.50;;;19.25;;
30303;SDS011;17112;48.636;10.152;2024-01-30T10:38:29;32.05;;;18.65;;
30303;SDS011;17112;48.636;10.152;2024-01-30T10:40:57;32.38;;;18.02;;
30303;SDS011;17112;48.636;10.152;2024-01-30T10:43:35;30.73;;;18.90;;
30303;SDS011;17112;48.636;10.152;2024-01-30T10:46:11;29.40;;;17.85;;
30303;SDS011;17112;48.636;10.152;2024-01-30T10:48:46;49.40;;;26.70;;
30303;SDS011;17112;48.636;10.152;2024-01-30T10:51:15;41.83;;;25.92;;
30303;SDS011;17112;48.636;10.152;2024-01-30T10:53:43;26.98;;;17.98;;
30303;SDS011;17112;48.636;10.152;2024-01-30T10:56:11;24.55;;;16.50;;
30303;SDS011;17112;48.636;10.152;2024-01-30T10:58:38;23.38;;;14.57;;
30303;SDS011;17112;48.636;10.152;2024-01-30T11:01:05;24.77;;;15.20;;
30303;SDS011;17112;48.636;10.152;2024-01-30T11:03:32;25.73;;;14.95;;
30303;SDS011;17112;48.636;10.152;2024-01-30T11:06:01;25.25;;;15.85;;
30303;SDS011;17112;48.636;10.152;2024-01-30T11:08:28;22.50;;;15.93;;
30303;SDS011;17112;48.636;10.152;2024-01-30T11:10:58;28.88;;;16.23;;
30303;SDS011;17112;48.636;10.152;2024-01-30T11:13:27;27.85;;;15.63;;
30303;SDS011;17112;48.636;10.152;2024-01-30T11:15:54;24.55;;;15.93;;
30303;SDS011;17112;48.636;10.152;2024-01-30T11:18:25;27.67;;;15.52;;
30303;SDS011;17112;48.636;10.152;2024-01-30T11:20:55;40.03;;;27.10;;
30303;SDS011;17112;48.636;10.152;2024-01-30T11:23:22;29.50;;;17.90;;
30303;SDS011;17112;48.636;10.152;2024-01-30T11:25:48;26.85;;;16.35;;
30303;SDS011;17112;48.636;10.152;2024-01-30T11:28:14;25.17;;;15.60;;
30303;SDS011;17112;48.636;10.152;2024-01-30T11:30:41;25.50;;;15.70;;
30303;SDS011;17112;48.636;10.152;2024-01-30T11:33:08;25.80;;;16.27;;
30303;SDS011;17112;48.636;10.152;2024-01-30T11:35:37;24.13;;;15.23;;
30303;SDS011;17112;48.636;10.152;2024-01-30T11:38:07;23.27;;;15.63;;
30303;SDS011;17112;48.636;10.152;2024-01-30T11:40:34;26.52;;;17.17;;
30303;SDS011;17112;48.636;10.152;2024-01-30T11:43:03;20.88;;;15.23;;
30303;SDS011;17112;48.636;10.152;2024-01-30T11:45:30;21.35;;;14.02;;
30303;SDS011;17112;48.636;10.152;2024-01-30T11:47:56;22.17;;;14.60;;
30303;SDS011;17112;48.636;10.152;2024-01-30T11:50:23;24.60;;;14.65;;
30303;SDS011;17112;48.636;10.152;2024-01-30T11:52:50;20.25;;;14.45;;
30303;SDS011;17112;48.636;10.152;2024-01-30T11:55:15;20.48;;;13.60;;
30303;SDS011;17112;48.636;10.152;2024-01-30T11:57:42;21.10;;;14.10;;
30303;SDS011;17112;48.636;10.152;2024-01-30T12:00:16;21.05;;;13.98;;
30303;SDS011;17112;48.636;10.152;2024-01-30T12:02:49;29.75;;;15.27;;
30303;SDS011;17112;48.636;10.152;2024-01-30T12:05:15;20.92;;;14.43;;
30303;SDS011;17112;48.636;10.152;2024-01-30T12:07:44;25.02;;;14.57;;
30303;SDS011;17112;48.636;10.152;2024-01-30T12:10:11;25.77;;;14.93;;
30303;SDS011;17112;48.636;10.152;2024-01-30T12:12:38;22.05;;;14.32;;
30303;SDS011;17112;48.636;10.152;2024-01-30T12:15:06;25.08;;;14.40;;
30303;SDS011;17112;48.636;10.152;2024-01-30T12:17:33;20.52;;;13.80;;
30303;SDS011;17112;48.636;10.152;2024-01-30T12:20:04;24.10;;;13.70;;
30303;SDS011;17112;48.636;10.152;2024-01-30T12:22:37;20.25;;;13.98;;
30303;SDS011;17112;48.636;10.152;2024-01-30T12:25:10;22.20;;;13.30;;
30303;SDS011;17112;48.636;10.152;2024-01-30T12:27:38;26.55;;;16.02;;
30303;SDS011;17112;48.636;10.152;2024-01-30T12:30:05;51.72;;;30.00;;
30303;SDS011;17112;48.636;10.152;2024-01-30T12:32:41;86.90;;;42.45;;
30303;SDS011;17112;48.636;10.152;2024-01-30T12:35:09;143.88;;;60.45;;
30303;SDS011;17112;48.636;10.152;2024-01-30T12:37:39;222.27;;;86.18;;
30303;SDS011;17112;48.636;10.152;2024-01-30T12:40:06;140.57;;;60.50;;
30303;SDS011;17112;48.636;10.152;2024-01-30T12:42:33;58.63;;;31.08;;
30303;SDS011;17112;48.636;10.152;2024-01-30T12:44:59;39.22;;;22.25;;
30303;SDS011;17112;48.636;10.152;2024-01-30T12:47:25;27.58;;;17.58;;
30303;SDS011;17112;48.636;10.152;2024-01-30T12:49:51;24.42;;;15.32;;
30303;SDS011;17112;48.636;10.152;2024-01-30T12:52:20;19.35;;;13.88;;
30303;SDS011;17112;48.636;10.152;2024-01-30T12:54:49;25.08;;;15.70;;
30303;SDS011;17112;48.636;10.152;2024-01-30T12:57:15;21.35;;;13.73;;
30303;SDS011;17112;48.636;10.152;2024-01-30T12:59:41;23.42;;;13.88;;
30303;SDS011;17112;48.636;10.152;2024-01-30T13:02:11;23.48;;;16.25;;
30303;SDS011;17112;48.636;10.152;2024-01-30T13:04:37;23.65;;;15.27;;
30303;SDS011;17112;48.636;10.152;2024-01-30T13:07:03;25.27;;;15.50;;
30303;SDS011;17112;48.636;10.152;2024-01-30T13:09:29;20.50;;;14.48;;
30303;SDS011;17112;48.636;10.152;2024-01-30T13:11:56;25.75;;;15.07;;
30303;SDS011;17112;48.636;10.152;2024-01-30T13:14:22;22.95;;;14.60;;
30303;SDS011;17112;48.636;10.152;2024-01-30T13:16:48;25.40;;;16.02;;
30303;SDS011;17112;48.636;10.152;2024-01-30T13:19:13;24.92;;;14.85;;
30303;SDS011;17112;48.636;10.152;2024-01-30T13:21:39;25.17;;;15.95;;
30303;SDS011;17112;48.636;10.152;2024-01-30T13:24:05;25.88;;;16.70;;
30303;SDS011;17112;48.636;10.152;2024-01-30T13:26:33;23.13;;;14.63;;
30303;SDS011;17112;48.636;10.152;2024-01-30T13:28:59;25.95;;;14.52;;
30303;SDS011;17112;48.636;10.152;2024-01-30T13:31:26;22.77;;;14.70;;
30303;SDS011;17112;48.636;10.152;2024-01-30T13:33:53;27.85;;;15.73;;
30303;SDS011;17112;48.636;10.152;2024-01-30T13:36:19;27.65;;;15.02;;
30303;SDS011;17112;48.636;10.152;2024-01-30T13:38:45;24.20;;;15.65;;
30303;SDS011;17112;48.636;10.152;2024-01-30T13:41:11;22.50;;;14.30;;
30303;SDS011;17112;48.636;10.152;2024-01-30T13:43:37;24.38;;;15.70;;
30303;SDS011;17112;48.636;10.152;2024-01-30T13:46:03;21.88;;;15.20;;
30303;SDS011;17112;48.636;10.152;2024-01-30T13:48:29;23.52;;;14.63;;
30303;SDS011;17112;48.636;10.152;2024-01-30T13:50:55;20.63;;;14.45;;
30303;SDS011;17112;48.636;10.152;2024-01-30T13:53:21;22.95;;;16.15;;
30303;SDS011;17112;48.636;10.152;2024-01-30T13:55:46;31.00;;;17.52;;
30303;SDS011;17112;48.636;10.152;2024-01-30T13:58:12;24.92;;;15.95;;
30303;SDS011;17112;48.636;10.152;2024-01-30T14:00:38;25.25;;;15.65;;
30303;SDS011;17112;48.636;10.152;2024-01-30T14:03:03;23.27;;;15.77;;
30303;SDS011;17112;48.636;10.152;2024-01-30T14:05:29;29.98;;;16.90;;
30303;SDS011;17112;48.636;10.152;2024-01-30T14:07:55;23.30;;;15.93;;